sensor_id;sensor_type;location;lat;lon;timestamp;P1;P2;P0
50866;PMS7003;36839;51.946;21.002;2023-05-07T00:03:06;7.00;6.50;5.50
50866;PMS7003;36839;51.946;21.002;2023-05-07T00:05:34;8.00;6.50;5.00
50866;PMS7003;36839;51.946;21.002;2023-05-07T00:08:05;8.50;6.50;6.00
50866;PMS7003;36839;51.946;21.002;2023-05-07T00:10:32;8.00;7.00;5.00
50866;PMS7003;36839;51.946;21.002;2023-05-07T00:15:29;6.00;6.00;5.00
50866;PMS7003;36839;51.946;21.002;2023-05-07T00:18:00;7.50;6.00;5.00
50866;PMS7003;36839;51.946;21.002;2023-05-07T00:20:46;8.00;7.00;5.00
50866;PMS7003;36839;51.946;21.002;2023-05-07T00:23:14;5.00;5.00;5.00
50866;PMS7003;36839;51.946;21.002;2023-05-07T00:25:41;8.00;6.50;5.00
50866;PMS7003;36839;51.946;21.002;2023-05-07T00:28:20;6.00;6.00;5.00
50866;PMS7003;36839;51.946;21.002;2023-05-07T00:30:47;9.00;6.00;5.00
50866;PMS7003;36839;51.946;21.002;2023-05-07T00:33:17;8.50;6.50;5.00
50866;PMS7003;36839;51.946;21.002;2023-05-07T00:38:12;6.00;6.00;5.00
50866;PMS7003;36839;51.946;21.002;2023-05-07T00:40:46;5.67;4.00;3.67
50866;PMS7003;36839;51.946;21.002;2023-05-07T00:43:26;7.00;7.00;5.00
50866;PMS7003;36839;51.946;21.002;2023-05-07T00:45:55;10.00;7.00;6.00
50866;PMS7003;36839;51.946;21.002;2023-05-07T00:48:24;8.00;6.00;5.00
50866;PMS7003;36839;51.946;21.002;2023-05-07T00:51:02;9.50;7.50;5.50
50866;PMS7003;36839;51.946;21.002;2023-05-07T00:53:30;6.00;6.00;5.00
50866;PMS7003;36839;51.946;21.002;2023-05-07T00:55:59;8.00;6.00;4.50
50866;PMS7003;36839;51.946;21.002;2023-05-07T00:58:35;7.50;7.50;5.00
50866;PMS7003;36839;51.946;21.002;2023-05-07T01:01:02;5.00;5.00;4.00
50866;PMS7003;36839;51.946;21.002;2023-05-07T01:03:30;7.00;6.00;4.00
50866;PMS7003;36839;51.946;21.002;2023-05-07T01:05:59;7.50;6.50;5.00
50866;PMS7003;36839;51.946;21.002;2023-05-07T01:08:28;6.00;6.00;5.00
50866;PMS7003;36839;51.946;21.002;2023-05-07T01:10:58;7.00;5.50;5.00
50866;PMS7003;36839;51.946;21.002;2023-05-07T01:13:32;9.00;5.00;4.00
50866;PMS7003;36839;51.946;21.002;2023-05-07T01:16:02;7.50;6.00;5.00
50866;PMS7003;36839;51.946;21.002;2023-05-07T01:18:33;5.50;5.50;4.50
50866;PMS7003;36839;51.946;21.002;2023-05-07T01:21:05;6.00;5.00;4.00
50866;PMS7003;36839;51.946;21.002;2023-05-07T01:23:38;6.00;6.00;5.00
50866;PMS7003;36839;51.946;21.002;2023-05-07T01:26:08;6.00;6.00;4.00
50866;PMS7003;36839;51.946;21.002;2023-05-07T01:28:35;7.00;6.00;4.00
50866;PMS7003;36839;51.946;21.002;2023-05-07T01:31:09;7.00;7.00;6.00
50866;PMS7003;36839;51.946;21.002;2023-05-07T01:33:37;7.00;7.00;5.00
50866;PMS7003;36839;51.946;21.002;2023-05-07T01:36:07;7.00;7.00;6.00
50866;PMS7003;36839;51.946;21.002;2023-05-07T01:38:37;11.00;8.00;6.00
50866;PMS7003;36839;51.946;21.002;2023-05-07T01:41:09;5.00;5.00;4.00
50866;PMS7003;36839;51.946;21.002;2023-05-07T01:43:39;8.00;8.00;6.50
50866;PMS7003;36839;51.946;21.002;2023-05-07T01:46:10;11.50;7.00;6.00
50866;PMS7003;36839;51.946;21.002;2023-05-07T01:48:39;7.00;6.00;5.00
50866;PMS7003;36839;51.946;21.002;2023-05-07T01:51:07;8.00;8.00;6.00
50866;PMS7003;36839;51.946;21.002;2023-05-07T01:53:40;6.00;6.00;5.00
50866;PMS7003;36839;51.946;21.002;2023-05-07T01:56:12;5.00;4.00;3.00
50866;PMS7003;36839;51.946;21.002;2023-05-07T01:58:42;6.00;5.00;4.00
50866;PMS7003;36839;51.946;21.002;2023-05-07T02:01:13;6.00;6.00;5.00
50866;PMS7003;36839;51.946;21.002;2023-05-07T02:03:42;7.00;7.00;5.00
50866;PMS7003;36839;51.946;21.002;2023-05-07T02:06:14;6.00;6.00;5.00
50866;PMS7003;36839;51.946;21.002;2023-05-07T02:08:43;5.50;4.50;4.00
50866;PMS7003;36839;51.946;21.002;2023-05-07T02:11:12;5.00;5.00;4.00
50866;PMS7003;36839;51.946;21.002;2023-05-07T02:13:45;6.00;5.00;4.00
50866;PMS7003;36839;51.946;21.002;2023-05-07T02:16:20;6.00;6.00;4.50
50866;PMS7003;36839;51.946;21.002;2023-05-07T02:18:51;6.00;6.00;4.00
50866;PMS7003;36839;51.946;21.002;2023-05-07T02:21:18;7.50;6.00;4.00
50866;PMS7003;36839;51.946;21.002;2023-05-07T02:23:48;7.00;6.00;5.00
50866;PMS7003;36839;51.946;21.002;2023-05-07T02:26:21;8.50;5.00;4.50
50866;PMS7003;36839;51.946;21.002;2023-05-07T02:28:50;6.50;6.50;4.00
50866;PMS7003;36839;51.946;21.002;2023-05-07T02:31:29;5.00;4.00;3.00
50866;PMS7003;36839;51.946;21.002;2023-05-07T02:33:57;6.00;6.00;5.00
50866;PMS7003;36839;51.946;21.002;2023-05-07T02:36:29;5.00;5.00;4.00
50866;PMS7003;36839;51.946;21.002;2023-05-07T02:38:57;6.00;6.00;5.00
50866;PMS7003;36839;51.946;21.002;2023-05-07T02:41:26;5.00;5.00;4.00
50866;PMS7003;36839;51.946;21.002;2023-05-07T02:43:56;5.00;5.00;4.00
50866;PMS7003;36839;51.946;21.002;2023-05-07T02:46:29;6.00;5.00;5.00
50866;PMS7003;36839;51.946;21.002;2023-05-07T02:49:01;6.50;5.00;5.00
50866;PMS7003;36839;51.946;21.002;2023-05-07T02:51:30;9.00;6.00;5.00
50866;PMS7003;36839;51.946;21.002;2023-05-07T02:54:00;7.00;6.00;4.00
50866;PMS7003;36839;51.946;21.002;2023-05-07T02:56:28;7.00;5.00;5.00
50866;PMS7003;36839;51.946;21.002;2023-05-07T02:58:57;5.00;5.00;3.00
50866;PMS7003;36839;51.946;21.002;2023-05-07T03:01:25;6.00;6.00;5.00
50866;PMS7003;36839;51.946;21.002;2023-05-07T03:03:52;5.00;5.00;5.00
50866;PMS7003;36839;51.946;21.002;2023-05-07T03:06:20;9.00;6.00;5.00
50866;PMS7003;36839;51.946;21.002;2023-05-07T03:08:49;7.00;6.00;4.50
50866;PMS7003;36839;51.946;21.002;2023-05-07T03:11:20;8.50;5.50;5.00
50866;PMS7003;36839;51.946;21.002;2023-05-07T03:13:53;5.00;5.00;4.00
50866;PMS7003;36839;51.946;21.002;2023-05-07T03:16:23;7.00;6.00;4.00
50866;PMS7003;36839;51.946;21.002;2023-05-07T03:18:50;5.00;5.00;4.00
50866;PMS7003;36839;51.946;21.002;2023-05-07T03:21:18;7.00;5.00;4.00
50866;PMS7003;36839;51.946;21.002;2023-05-07T03:23:47;6.00;6.00;5.00
50866;PMS7003;36839;51.946;21.002;2023-05-07T03:26:14;5.50;4.00;3.00
50866;PMS7003;36839;51.946;21.002;2023-05-07T03:28:45;5.00;5.00;4.00
50866;PMS7003;36839;51.946;21.002;2023-05-07T03:31:19;5.00;5.00;4.00
50866;PMS7003;36839;51.946;21.002;2023-05-07T03:33:52;5.00;5.00;4.00
50866;PMS7003;36839;51.946;21.002;2023-05-07T03:36:29;5.00;5.00;4.50
50866;PMS7003;36839;51.946;21.002;2023-05-07T03:38:59;4.00;4.00;4.00
50866;PMS7003;36839;51.946;21.002;2023-05-07T03:41:27;4.50;4.50;3.50
50866;PMS7003;36839;51.946;21.002;2023-05-07T03:43:56;5.50;5.00;3.50
50866;PMS7003;36839;51.946;21.002;2023-05-07T03:46:24;4.67;4.67;4.00
50866;PMS7003;36839;51.946;21.002;2023-05-07T03:48:54;7.00;5.00;4.00
50866;PMS7003;36839;51.946;21.002;2023-05-07T03:51:26;6.00;5.00;4.00
50866;PMS7003;36839;51.946;21.002;2023-05-07T03:53:55;6.00;4.50;4.00
50866;PMS7003;36839;51.946;21.002;2023-05-07T03:56:33;7.50;5.00;4.00
50866;PMS7003;36839;51.946;21.002;2023-05-07T03:59:05;6.00;5.00;4.00
50866;PMS7003;36839;51.946;21.002;2023-05-07T04:01:34;4.00;4.00;4.00
50866;PMS7003;36839;51.946;21.002;2023-05-07T04:04:04;5.00;4.00;3.00
50866;PMS7003;36839;51.946;21.002;2023-05-07T04:06:32;3.00;3.00;3.00
50866;PMS7003;36839;51.946;21.002;2023-05-07T04:09:02;4.50;4.50;3.50
50866;PMS7003;36839;51.946;21.002;2023-05-07T04:11:32;4.00;4.00;4.00
50866;PMS7003;36839;51.946;21.002;2023-05-07T04:14:00;6.00;5.00;4.00
50866;PMS7003;36839;51.946;21.002;2023-05-07T04:16:30;6.00;6.00;5.00
50866;PMS7003;36839;51.946;21.002;2023-05-07T04:19:09;5.00;3.00;3.00
50866;PMS7003;36839;51.946;21.002;2023-05-07T04:21:50;4.00;3.00;3.00
50866;PMS7003;36839;51.946;21.002;2023-05-07T04:24:18;4.50;2.50;2.00
50866;PMS7003;36839;51.946;21.002;2023-05-07T04:29:25;3.00;3.00;3.00
50866;PMS7003;36839;51.946;21.002;2023-05-07T04:31:53;5.00;3.00;3.00
50866;PMS7003;36839;51.946;21.002;2023-05-07T04:34:22;3.50;3.50;3.00
50866;PMS7003;36839;51.946;21.002;2023-05-07T04:36:52;4.00;2.00;2.00
50866;PMS7003;36839;51.946;21.002;2023-05-07T04:39:23;3.50;3.50;3.00
50866;PMS7003;36839;51.946;21.002;2023-05-07T04:41:52;4.00;4.00;3.00
50866;PMS7003;36839;51.946;21.002;2023-05-07T04:44:22;4.00;3.00;3.00
50866;PMS7003;36839;51.946;21.002;2023-05-07T04:46:52;6.00;4.00;3.00
50866;PMS7003;36839;51.946;21.002;2023-05-07T04:49:21;3.50;3.50;3.00
50866;PMS7003;36839;51.946;21.002;2023-05-07T04:51:51;4.00;4.00;3.00
50866;PMS7003;36839;51.946;21.002;2023-05-07T04:54:26;4.00;3.00;2.00
50866;PMS7003;36839;51.946;21.002;2023-05-07T04:56:56;3.00;3.00;3.00
50866;PMS7003;36839;51.946;21.002;2023-05-07T04:59:24;4.00;4.00;3.00
50866;PMS7003;36839;51.946;21.002;2023-05-07T05:01:53;3.00;3.00;3.00
50866;PMS7003;36839;51.946;21.002;2023-05-07T05:04:20;4.00;4.00;4.00
50866;PMS7003;36839;51.946;21.002;2023-05-07T05:06:46;6.00;6.00;5.00
50866;PMS7003;36839;51.946;21.002;2023-05-07T05:09:24;3.50;3.50;3.00
50866;PMS7003;36839;51.946;21.002;2023-05-07T05:11:52;5.50;5.50;4.00
50866;PMS7003;36839;51.946;21.002;2023-05-07T05:14:31;4.00;4.00;3.00
50866;PMS7003;36839;51.946;21.002;2023-05-07T05:16:58;4.50;4.00;3.50
50866;PMS7003;36839;51.946;21.002;2023-05-07T05:19:27;4.50;4.50;4.00
50866;PMS7003;36839;51.946;21.002;2023-05-07T05:21:55;5.00;5.00;4.00
50866;PMS7003;36839;51.946;21.002;2023-05-07T05:24:23;4.00;4.00;3.50
50866;PMS7003;36839;51.946;21.002;2023-05-07T05:26:53;4.00;4.00;4.00
50866;PMS7003;36839;51.946;21.002;2023-05-07T05:29:22;5.00;3.00;3.00
50866;PMS7003;36839;51.946;21.002;2023-05-07T05:31:52;4.00;4.00;4.00
50866;PMS7003;36839;51.946;21.002;2023-05-07T05:34:24;3.00;3.00;2.50
50866;PMS7003;36839;51.946;21.002;2023-05-07T05:36:52;5.00;5.00;4.00
50866;PMS7003;36839;51.946;21.002;2023-05-07T05:39:19;5.00;3.50;3.00
50866;PMS7003;36839;51.946;21.002;2023-05-07T05:41:50;6.00;4.00;3.00
50866;PMS7003;36839;51.946;21.002;2023-05-07T05:44:19;4.00;4.00;4.00
50866;PMS7003;36839;51.946;21.002;2023-05-07T05:46:47;4.00;4.00;2.50
50866;PMS7003;36839;51.946;21.002;2023-05-07T05:49:19;5.00;5.00;3.50
50866;PMS7003;36839;51.946;21.002;2023-05-07T05:51:50;5.50;5.50;4.50
50866;PMS7003;36839;51.946;21.002;2023-05-07T05:54:18;5.50;4.00;4.00
50866;PMS7003;36839;51.946;21.002;2023-05-07T05:56:45;4.00;4.00;3.00
50866;PMS7003;36839;51.946;21.002;2023-05-07T05:59:15;4.00;4.00;3.00
50866;PMS7003;36839;51.946;21.002;2023-05-07T06:01:47;4.00;4.00;3.00
50866;PMS7003;36839;51.946;21.002;2023-05-07T06:04:39;3.00;3.00;2.00
50866;PMS7003;36839;51.946;21.002;2023-05-07T06:07:13;3.00;3.00;2.00
50866;PMS7003;36839;51.946;21.002;2023-05-07T06:09:41;8.00;5.00;3.00
50866;PMS7003;36839;51.946;21.002;2023-05-07T06:12:13;5.00;3.00;3.00
50866;PMS7003;36839;51.946;21.002;2023-05-07T06:17:14;6.00;4.00;4.00
50866;PMS7003;36839;51.946;21.002;2023-05-07T06:19:43;3.00;3.00;3.00
50866;PMS7003;36839;51.946;21.002;2023-05-07T06:22:10;4.00;4.00;3.00
50866;PMS7003;36839;51.946;21.002;2023-05-07T06:24:42;3.00;3.00;3.00
50866;PMS7003;36839;51.946;21.002;2023-05-07T06:27:10;5.00;3.00;3.00
50866;PMS7003;36839;51.946;21.002;2023-05-07T06:29:38;5.00;5.00;4.00
50866;PMS7003;36839;51.946;21.002;2023-05-07T06:32:07;4.00;4.00;4.00
50866;PMS7003;36839;51.946;21.002;2023-05-07T06:34:37;4.00;4.00;3.00
50866;PMS7003;36839;51.946;21.002;2023-05-07T06:37:10;4.00;4.00;3.00
50866;PMS7003;36839;51.946;21.002;2023-05-07T06:39:45;7.00;5.50;4.00
50866;PMS7003;36839;51.946;21.002;2023-05-07T06:42:13;4.00;4.00;4.00
50866;PMS7003;36839;51.946;21.002;2023-05-07T06:47:12;5.00;5.00;4.00
50866;PMS7003;36839;51.946;21.002;2023-05-07T06:49:41;8.50;6.00;5.00
50866;PMS7003;36839;51.946;21.002;2023-05-07T06:52:19;4.00;4.00;4.00
50866;PMS7003;36839;51.946;21.002;2023-05-07T06:54:48;4.00;4.00;3.00
50866;PMS7003;36839;51.946;21.002;2023-05-07T06:57:19;4.00;4.00;3.00
50866;PMS7003;36839;51.946;21.002;2023-05-07T06:59:47;5.00;4.00;3.50
50866;PMS7003;36839;51.946;21.002;2023-05-07T07:02:16;6.50;4.50;3.50
50866;PMS7003;36839;51.946;21.002;2023-05-07T07:04:47;6.00;5.00;4.00
50866;PMS7003;36839;51.946;21.002;2023-05-07T07:07:18;3.00;3.00;2.50
50866;PMS7003;36839;51.946;21.002;2023-05-07T07:09:57;5.00;5.00;4.50
50866;PMS7003;36839;51.946;21.002;2023-05-07T07:12:38;3.00;3.00;3.00
50866;PMS7003;36839;51.946;21.002;2023-05-07T07:15:09;5.00;5.00;4.00
50866;PMS7003;36839;51.946;21.002;2023-05-07T07:17:39;6.00;4.00;4.00
50866;PMS7003;36839;51.946;21.002;2023-05-07T07:20:18;3.00;3.00;3.00
50866;PMS7003;36839;51.946;21.002;2023-05-07T07:22:46;4.00;4.00;3.00
50866;PMS7003;36839;51.946;21.002;2023-05-07T07:25:16;3.00;3.00;3.00
50866;PMS7003;36839;51.946;21.002;2023-05-07T07:27:47;4.00;4.00;3.00
50866;PMS7003;36839;51.946;21.002;2023-05-07T07:30:15;3.00;3.00;3.00
50866;PMS7003;36839;51.946;21.002;2023-05-07T07:32:44;2.00;2.00;2.00
50866;PMS7003;36839;51.946;21.002;2023-05-07T07:35:11;3.00;3.00;3.00
50866;PMS7003;36839;51.946;21.002;2023-05-07T07:37:41;3.00;3.00;3.00
50866;PMS7003;36839;51.946;21.002;2023-05-07T07:40:09;6.67;4.67;4.00
50866;PMS7003;36839;51.946;21.002;2023-05-07T07:42:38;4.00;4.00;3.00
50866;PMS7003;36839;51.946;21.002;2023-05-07T07:45:06;5.00;3.67;3.00
50866;PMS7003;36839;51.946;21.002;2023-05-07T07:52:43;5.00;4.00;3.00
50866;PMS7003;36839;51.946;21.002;2023-05-07T07:55:20;4.00;4.00;3.00
50866;PMS7003;36839;51.946;21.002;2023-05-07T07:57:50;4.00;4.00;3.00
50866;PMS7003;36839;51.946;21.002;2023-05-07T08:00:19;7.00;5.00;5.00
50866;PMS7003;36839;51.946;21.002;2023-05-07T08:02:49;6.50;5.00;4.00
50866;PMS7003;36839;51.946;21.002;2023-05-07T08:05:19;5.50;5.50;5.00
50866;PMS7003;36839;51.946;21.002;2023-05-07T08:07:47;6.00;6.00;4.50
50866;PMS7003;36839;51.946;21.002;2023-05-07T08:10:18;5.00;5.00;4.00
50866;PMS7003;36839;51.946;21.002;2023-05-07T08:12:57;5.00;5.00;4.00
50866;PMS7003;36839;51.946;21.002;2023-05-07T08:17:55;6.00;6.00;5.00
50866;PMS7003;36839;51.946;21.002;2023-05-07T08:20:28;5.00;5.00;5.00
50866;PMS7003;36839;51.946;21.002;2023-05-07T08:22:57;7.00;5.00;4.00
50866;PMS7003;36839;51.946;21.002;2023-05-07T08:25:35;5.50;5.50;4.00
50866;PMS7003;36839;51.946;21.002;2023-05-07T08:28:04;6.00;5.00;4.00
50866;PMS7003;36839;51.946;21.002;2023-05-07T08:30:32;6.00;4.50;4.00
50866;PMS7003;36839;51.946;21.002;2023-05-07T08:33:04;5.00;5.00;4.00
50866;PMS7003;36839;51.946;21.002;2023-05-07T08:35:36;8.00;5.00;4.00
50866;PMS7003;36839;51.946;21.002;2023-05-07T08:38:03;4.00;4.00;3.00
50866;PMS7003;36839;51.946;21.002;2023-05-07T08:40:38;4.00;4.00;4.00
50866;PMS7003;36839;51.946;21.002;2023-05-07T08:43:06;5.33;4.33;4.00
50866;PMS7003;36839;51.946;21.002;2023-05-07T08:45:41;6.00;4.50;4.00
50866;PMS7003;36839;51.946;21.002;2023-05-07T08:48:16;5.00;5.00;4.00
50866;PMS7003;36839;51.946;21.002;2023-05-07T08:50:45;6.00;4.00;3.00
50866;PMS7003;36839;51.946;21.002;2023-05-07T08:53:14;5.00;5.00;4.00
50866;PMS7003;36839;51.946;21.002;2023-05-07T08:55:44;4.00;4.00;3.00
50866;PMS7003;36839;51.946;21.002;2023-05-07T08:58:14;8.00;6.00;5.00
50866;PMS7003;36839;51.946;21.002;2023-05-07T09:00:42;9.00;7.00;5.67
50866;PMS7003;36839;51.946;21.002;2023-05-07T09:03:19;5.00;5.00;3.00
50866;PMS7003;36839;51.946;21.002;2023-05-07T09:05:48;4.00;4.00;3.00
50866;PMS7003;36839;51.946;21.002;2023-05-07T09:08:23;8.00;7.00;4.00
50866;PMS7003;36839;51.946;21.002;2023-05-07T09:10:59;7.00;7.00;5.00
50866;PMS7003;36839;51.946;21.002;2023-05-07T09:13:41;6.00;6.00;5.00
50866;PMS7003;36839;51.946;21.002;2023-05-07T09:16:16;5.50;4.50;3.50
50866;PMS7003;36839;51.946;21.002;2023-05-07T09:18:57;8.00;6.00;5.00
50866;PMS7003;36839;51.946;21.002;2023-05-07T09:21:27;4.00;4.00;4.00
50866;PMS7003;36839;51.946;21.002;2023-05-07T09:23:55;5.00;5.00;5.00
50866;PMS7003;36839;51.946;21.002;2023-05-07T09:26:24;5.00;5.00;4.00
50866;PMS7003;36839;51.946;21.002;2023-05-07T09:28:54;5.00;5.00;4.00
50866;PMS7003;36839;51.946;21.002;2023-05-07T09:31:30;7.00;6.00;5.00
50866;PMS7003;36839;51.946;21.002;2023-05-07T09:34:05;11.00;6.00;5.00
50866;PMS7003;36839;51.946;21.002;2023-05-07T09:36:36;7.00;5.00;4.00
50866;PMS7003;36839;51.946;21.002;2023-05-07T09:39:05;7.00;6.00;4.00
50866;PMS7003;36839;51.946;21.002;2023-05-07T09:41:36;6.00;6.00;5.00
50866;PMS7003;36839;51.946;21.002;2023-05-07T09:44:16;4.00;4.00;4.00
50866;PMS7003;36839;51.946;21.002;2023-05-07T09:46:45;6.00;6.00;5.00
50866;PMS7003;36839;51.946;21.002;2023-05-07T09:51:50;6.00;6.00;5.00
50866;PMS7003;36839;51.946;21.002;2023-05-07T09:54:19;7.50;6.50;5.00
50866;PMS7003;36839;51.946;21.002;2023-05-07T09:56:51;7.00;7.00;6.00
50866;PMS7003;36839;51.946;21.002;2023-05-07T09:59:26;6.00;6.00;5.00
50866;PMS7003;36839;51.946;21.002;2023-05-07T10:02:20;5.00;5.00;4.00
50866;PMS7003;36839;51.946;21.002;2023-05-07T10:04:49;6.00;6.00;5.00
50866;PMS7003;36839;51.946;21.002;2023-05-07T10:07:24;5.00;5.00;5.00
50866;PMS7003;36839;51.946;21.002;2023-05-07T10:09:55;4.00;4.00;4.00
50866;PMS7003;36839;51.946;21.002;2023-05-07T10:14:57;5.00;5.00;4.00
50866;PMS7003;36839;51.946;21.002;2023-05-07T10:17:24;5.00;5.00;4.50
50866;PMS7003;36839;51.946;21.002;2023-05-07T10:19:54;6.00;6.00;6.00
50866;PMS7003;36839;51.946;21.002;2023-05-07T10:22:26;4.00;4.00;4.00
50866;PMS7003;36839;51.946;21.002;2023-05-07T10:25:00;7.33;6.33;5.33
50866;PMS7003;36839;51.946;21.002;2023-05-07T10:27:34;5.50;5.50;5.00
50866;PMS7003;36839;51.946;21.002;2023-05-07T10:33:31;6.00;6.00;5.00
50866;PMS7003;36839;51.946;21.002;2023-05-07T10:36:24;4.00;4.00;4.00
50866;PMS7003;36839;51.946;21.002;2023-05-07T10:38:58;5.67;5.67;4.33
50866;PMS7003;36839;51.946;21.002;2023-05-07T10:41:26;6.33;5.00;4.67
50866;PMS7003;36839;51.946;21.002;2023-05-07T10:44:04;7.00;7.00;5.00
50866;PMS7003;36839;51.946;21.002;2023-05-07T10:46:34;9.00;6.00;5.00
50866;PMS7003;36839;51.946;21.002;2023-05-07T10:51:36;6.50;6.00;5.00
50866;PMS7003;36839;51.946;21.002;2023-05-07T10:56:59;11.00;7.00;5.00
50866;PMS7003;36839;51.946;21.002;2023-05-07T11:05:29;6.50;6.50;6.00
50866;PMS7003;36839;51.946;21.002;2023-05-07T11:08:00;5.00;5.00;5.00
50866;PMS7003;36839;51.946;21.002;2023-05-07T11:10:55;8.00;7.00;6.00
50866;PMS7003;36839;51.946;21.002;2023-05-07T11:16:26;6.00;6.00;5.00
50866;PMS7003;36839;51.946;21.002;2023-05-07T11:18:55;9.00;8.00;6.00
50866;PMS7003;36839;51.946;21.002;2023-05-07T11:24:11;6.50;6.50;5.50
50866;PMS7003;36839;51.946;21.002;2023-05-07T11:26:49;24.00;20.00;16.00
50866;PMS7003;36839;51.946;21.002;2023-05-07T11:29:21;36.00;31.00;23.00
50866;PMS7003;36839;51.946;21.002;2023-05-07T11:31:56;10.50;10.50;10.50
50866;PMS7003;36839;51.946;21.002;2023-05-07T11:34:51;25.00;19.00;16.00
50866;PMS7003;36839;51.946;21.002;2023-05-07T11:37:40;34.00;32.00;25.00
50866;PMS7003;36839;51.946;21.002;2023-05-07T11:40:09;27.00;25.00;22.00
50866;PMS7003;36839;51.946;21.002;2023-05-07T11:42:40;19.50;19.00;17.50
50866;PMS7003;36839;51.946;21.002;2023-05-07T11:45:22;18.50;18.50;16.50
50866;PMS7003;36839;51.946;21.002;2023-05-07T11:48:07;17.00;14.50;13.50
50866;PMS7003;36839;51.946;21.002;2023-05-07T11:50:34;17.00;12.00;10.00
50866;PMS7003;36839;51.946;21.002;2023-05-07T11:53:07;6.00;6.00;6.00
50866;PMS7003;36839;51.946;21.002;2023-05-07T11:55:40;8.00;8.00;7.00
50866;PMS7003;36839;51.946;21.002;2023-05-07T11:58:10;8.00;8.00;7.00
50866;PMS7003;36839;51.946;21.002;2023-05-07T12:00:39;13.00;12.00;10.00
50866;PMS7003;36839;51.946;21.002;2023-05-07T12:03:17;9.00;9.00;6.00
50866;PMS7003;36839;51.946;21.002;2023-05-07T12:05:45;10.50;10.50;9.00
50866;PMS7003;36839;51.946;21.002;2023-05-07T12:08:18;8.00;8.00;7.00
50866;PMS7003;36839;51.946;21.002;2023-05-07T12:11:10;11.00;8.00;6.33
50866;PMS7003;36839;51.946;21.002;2023-05-07T12:13:50;13.00;13.00;11.00
50866;PMS7003;36839;51.946;21.002;2023-05-07T12:16:21;16.00;12.50;10.50
50866;PMS7003;36839;51.946;21.002;2023-05-07T12:18:53;14.00;12.00;10.00
50866;PMS7003;36839;51.946;21.002;2023-05-07T12:21:33;10.00;10.00;9.00
50866;PMS7003;36839;51.946;21.002;2023-05-07T12:24:09;8.00;8.00;7.00
50866;PMS7003;36839;51.946;21.002;2023-05-07T12:33:16;10.50;9.00;8.00
50866;PMS7003;36839;51.946;21.002;2023-05-07T12:35:46;10.00;9.00;8.00
50866;PMS7003;36839;51.946;21.002;2023-05-07T12:38:25;16.00;12.00;10.00
50866;PMS7003;36839;51.946;21.002;2023-05-07T12:40:55;5.50;5.00;4.00
50866;PMS7003;36839;51.946;21.002;2023-05-07T12:43:27;6.50;6.50;6.00
50866;PMS7003;36839;51.946;21.002;2023-05-07T12:45:59;8.00;8.00;6.00
50866;PMS7003;36839;51.946;21.002;2023-05-07T12:48:30;8.00;8.00;6.00
50866;PMS7003;36839;51.946;21.002;2023-05-07T12:51:01;11.00;8.00;6.00
50866;PMS7003;36839;51.946;21.002;2023-05-07T12:53:39;10.00;7.00;6.00
50866;PMS7003;36839;51.946;21.002;2023-05-07T12:56:11;9.00;9.00;7.00
50866;PMS7003;36839;51.946;21.002;2023-05-07T12:58:43;6.00;6.00;5.00
50866;PMS7003;36839;51.946;21.002;2023-05-07T13:01:21;8.00;8.00;6.00
50866;PMS7003;36839;51.946;21.002;2023-05-07T13:04:00;7.00;7.00;5.00
50866;PMS7003;36839;51.946;21.002;2023-05-07T13:06:29;11.00;11.00;8.00
50866;PMS7003;36839;51.946;21.002;2023-05-07T13:09:00;11.00;10.50;10.00
50866;PMS7003;36839;51.946;21.002;2023-05-07T13:11:30;11.00;9.00;7.00
50866;PMS7003;36839;51.946;21.002;2023-05-07T13:14:07;17.00;17.00;13.00
50866;PMS7003;36839;51.946;21.002;2023-05-07T13:16:34;7.50;7.50;7.00
50866;PMS7003;36839;51.946;21.002;2023-05-07T13:19:02;9.00;8.00;7.00
50866;PMS7003;36839;51.946;21.002;2023-05-07T13:21:31;9.50;7.00;6.00
50866;PMS7003;36839;51.946;21.002;2023-05-07T13:24:02;6.00;6.00;6.00
50866;PMS7003;36839;51.946;21.002;2023-05-07T13:26:31;10.00;7.00;6.00
50866;PMS7003;36839;51.946;21.002;2023-05-07T13:29:00;8.50;7.50;6.50
50866;PMS7003;36839;51.946;21.002;2023-05-07T13:31:28;11.00;9.00;8.00
50866;PMS7003;36839;51.946;21.002;2023-05-07T13:33:56;7.00;7.00;6.50
50866;PMS7003;36839;51.946;21.002;2023-05-07T13:36:40;9.00;7.00;6.00
50866;PMS7003;36839;51.946;21.002;2023-05-07T13:39:08;9.50;9.50;7.50
50866;PMS7003;36839;51.946;21.002;2023-05-07T13:41:41;10.00;8.00;7.00
50866;PMS7003;36839;51.946;21.002;2023-05-07T13:44:08;8.00;8.00;6.00
50866;PMS7003;36839;51.946;21.002;2023-05-07T13:46:36;9.00;8.50;6.50
50866;PMS7003;36839;51.946;21.002;2023-05-07T13:49:04;7.00;7.00;5.50
50866;PMS7003;36839;51.946;21.002;2023-05-07T13:51:32;6.00;6.00;5.00
50866;PMS7003;36839;51.946;21.002;2023-05-07T13:53:59;9.00;7.00;6.00
50866;PMS7003;36839;51.946;21.002;2023-05-07T13:56:27;8.00;8.00;7.00
50866;PMS7003;36839;51.946;21.002;2023-05-07T13:58:57;12.00;8.00;6.00
50866;PMS7003;36839;51.946;21.002;2023-05-07T14:01:28;9.50;7.50;6.50
50866;PMS7003;36839;51.946;21.002;2023-05-07T14:03:55;11.00;9.00;8.00
50866;PMS7003;36839;51.946;21.002;2023-05-07T14:06:39;10.00;7.00;6.00
50866;PMS7003;36839;51.946;21.002;2023-05-07T14:09:10;9.50;9.50;7.50
50866;PMS7003;36839;51.946;21.002;2023-05-07T14:11:39;7.00;7.00;6.00
50866;PMS7003;36839;51.946;21.002;2023-05-07T14:14:09;5.00;5.00;5.00
50866;PMS7003;36839;51.946;21.002;2023-05-07T14:16:37;8.00;8.00;6.00
50866;PMS7003;36839;51.946;21.002;2023-05-07T14:19:05;9.00;8.00;7.00
50866;PMS7003;36839;51.946;21.002;2023-05-07T14:21:38;10.00;8.00;7.00
50866;PMS7003;36839;51.946;21.002;2023-05-07T14:24:06;9.00;9.00;8.00
50866;PMS7003;36839;51.946;21.002;2023-05-07T14:26:37;9.00;9.00;8.00
50866;PMS7003;36839;51.946;21.002;2023-05-07T14:29:05;8.50;8.50;6.50
50866;PMS7003;36839;51.946;21.002;2023-05-07T14:31:33;8.00;7.00;6.00
50866;PMS7003;36839;51.946;21.002;2023-05-07T14:34:00;16.00;14.50;13.00
50866;PMS7003;36839;51.946;21.002;2023-05-07T14:36:29;15.67;14.67;13.33
50866;PMS7003;36839;51.946;21.002;2023-05-07T14:38:59;10.00;10.00;8.00
50866;PMS7003;36839;51.946;21.002;2023-05-07T14:41:27;12.00;11.00;10.00
50866;PMS7003;36839;51.946;21.002;2023-05-07T14:47:00;9.00;9.00;9.00
50866;PMS7003;36839;51.946;21.002;2023-05-07T14:49:33;11.00;9.00;8.00
50866;PMS7003;36839;51.946;21.002;2023-05-07T14:52:00;12.00;10.00;9.00
50866;PMS7003;36839;51.946;21.002;2023-05-07T14:54:29;8.00;8.00;7.00
50866;PMS7003;36839;51.946;21.002;2023-05-07T14:57:06;8.00;8.00;6.50
50866;PMS7003;36839;51.946;21.002;2023-05-07T14:59:45;7.00;7.00;6.00
50866;PMS7003;36839;51.946;21.002;2023-05-07T15:02:15;7.50;7.50;7.00
50866;PMS7003;36839;51.946;21.002;2023-05-07T15:04:44;7.00;7.00;6.00
50866;PMS7003;36839;51.946;21.002;2023-05-07T15:07:13;6.50;6.00;5.00
50866;PMS7003;36839;51.946;21.002;2023-05-07T15:09:42;6.33;6.33;5.33
50866;PMS7003;36839;51.946;21.002;2023-05-07T15:12:13;9.00;9.00;8.00
50866;PMS7003;36839;51.946;21.002;2023-05-07T15:14:41;7.00;7.00;6.50
50866;PMS7003;36839;51.946;21.002;2023-05-07T15:17:09;5.00;5.00;4.00
50866;PMS7003;36839;51.946;21.002;2023-05-07T15:19:37;8.00;8.00;7.50
50866;PMS7003;36839;51.946;21.002;2023-05-07T15:22:04;24.00;21.67;19.00
50866;PMS7003;36839;51.946;21.002;2023-05-07T15:24:34;18.50;18.50;16.50
50866;PMS7003;36839;51.946;21.002;2023-05-07T15:27:03;15.00;13.00;11.00